createdAt,value
2023-05-10T00:01:09.187Z,2.08
2023-05-10T00:04:11.679Z,1.90
2023-05-10T00:07:14.114Z,3.47
2023-05-10T00:10:16.743Z,4.60
2023-05-10T00:13:19.530Z,1.67
2023-05-10T00:16:21.969Z,2.03
2023-05-10T00:19:24.362Z,2.20
2023-05-10T00:22:27.116Z,2.30
2023-05-10T00:25:29.569Z,2.50
2023-05-10T00:28:32.130Z,3.42
2023-05-10T00:31:34.756Z,3.92
2023-05-10T00:34:37.597Z,1.60
2023-05-10T00:37:39.998Z,2.33
2023-05-10T00:40:42.526Z,2.10
2023-05-10T00:43:51.267Z,2.38
2023-05-10T00:46:53.701Z,2.20
2023-05-10T00:49:56.855Z,2.70
2023-05-10T00:53:00.939Z,1.87
2023-05-10T00:56:04.797Z,2.63
2023-05-10T00:59:07.993Z,1.80
2023-05-10T01:02:10.797Z,2.42
2023-05-10T01:05:13.644Z,2.10
2023-05-10T01:08:16.140Z,2.47
2023-05-10T01:11:18.542Z,2.23
2023-05-10T01:14:21.414Z,3.75
2023-05-10T01:17:24.188Z,2.72
2023-05-10T01:20:29.414Z,3.08
2023-05-10T01:24:27.217Z,2.30
2023-05-10T01:27:32.950Z,2.10
2023-05-10T01:30:35.330Z,1.80
2023-05-10T01:33:48.352Z,2.30
2023-05-10T01:37:07.483Z,1.88
2023-05-10T01:40:24.574Z,2.23
2023-05-10T01:43:34.859Z,2.23
2023-05-10T01:46:38.699Z,3.13
2023-05-10T01:49:47.563Z,4.00
2023-05-10T01:52:58.296Z,2.63
2023-05-10T01:56:01.565Z,2.07
2023-05-10T01:59:08.248Z,2.00
2023-05-10T02:02:13.151Z,1.85
2023-05-10T02:05:17.183Z,1.60
2023-05-10T02:08:20.229Z,2.22
2023-05-10T02:11:23.124Z,2.30
2023-05-10T02:14:27.475Z,2.70
2023-05-10T02:17:32.121Z,2.28
2023-05-10T02:20:36.083Z,2.70
2023-05-10T02:23:38.596Z,2.17
2023-05-10T02:26:41.845Z,1.87
2023-05-10T02:29:44.309Z,1.87
2023-05-10T02:32:48.627Z,1.92
2023-05-10T02:35:52.178Z,2.65
2023-05-10T02:38:54.953Z,1.85
2023-05-10T02:41:59.949Z,3.23
2023-05-10T02:45:03.772Z,1.80
2023-05-10T02:48:06.364Z,2.25
2023-05-10T02:51:09.127Z,2.05
2023-05-10T02:54:20.105Z,2.17
2023-05-10T02:57:35.139Z,1.50
2023-05-10T03:00:37.648Z,3.47
2023-05-10T03:03:40.070Z,2.00
2023-05-10T03:06:43.543Z,1.90
2023-05-10T03:09:46.257Z,1.50
2023-05-10T03:12:49.568Z,2.33
2023-05-10T03:16:09.314Z,1.87
2023-05-10T03:19:21.219Z,1.90
2023-05-10T03:22:38.090Z,2.20
2023-05-10T03:25:42.292Z,1.88
2023-05-10T03:28:45.074Z,2.00
2023-05-10T03:31:47.690Z,1.40
2023-05-10T03:34:51.159Z,2.15
2023-05-10T03:37:53.609Z,1.85
2023-05-10T03:40:56.777Z,3.08
2023-05-10T03:43:59.140Z,2.07
2023-05-10T03:47:01.758Z,2.03
2023-05-10T03:50:05.545Z,2.05
2023-05-10T03:53:09.038Z,1.98
2023-05-10T03:56:11.818Z,2.00
2023-05-10T03:59:15.169Z,3.70
2023-05-10T04:02:17.638Z,1.67
2023-05-10T04:05:20.130Z,1.58
2023-05-10T04:08:22.718Z,2.67
2023-05-10T04:11:25.928Z,2.88
2023-05-10T04:14:28.381Z,5.77
2023-05-10T04:17:30.958Z,2.40
2023-05-10T04:20:34.405Z,5.75
2023-05-10T04:23:36.923Z,3.33
2023-05-10T04:26:39.409Z,4.93
2023-05-10T04:29:42.648Z,4.03
2023-05-10T04:32:45.163Z,8.47
2023-05-10T04:35:47.687Z,4.43
2023-05-10T04:38:53.091Z,6.47
2023-05-10T04:41:55.508Z,3.42
2023-05-10T04:44:58.049Z,5.97
2023-05-10T04:48:00.551Z,3.53
2023-05-10T04:51:04.998Z,3.90
2023-05-10T04:54:07.633Z,2.53
2023-05-10T04:57:10.010Z,8.10
2023-05-10T05:00:13.253Z,6.77
2023-05-10T05:03:16.036Z,2.63
2023-05-10T05:06:18.724Z,2.50
2023-05-10T05:09:21.185Z,4.38
2023-05-10T05:12:23.630Z,5.53
2023-05-10T05:15:26.113Z,3.80
2023-05-10T05:18:28.547Z,5.13
2023-05-10T05:21:31.012Z,9.25
2023-05-10T05:24:37.677Z,8.68
2023-05-10T05:27:40.978Z,5.55
2023-05-10T05:30:43.592Z,3.97
2023-05-10T05:33:46.058Z,6.27
2023-05-10T05:36:49.034Z,3.88
2023-05-10T05:39:51.638Z,10.77
2023-05-10T05:42:54.161Z,5.75
2023-05-10T05:45:59.489Z,7.63
2023-05-10T05:49:02.497Z,9.30
2023-05-10T05:52:05.437Z,6.90
2023-05-10T05:55:08.126Z,4.95
2023-05-10T05:58:10.837Z,12.32
2023-05-10T06:01:13.748Z,11.30
2023-05-10T06:04:16.255Z,14.53
2023-05-10T06:07:19.707Z,12.73
2023-05-10T06:10:24.046Z,14.48
2023-05-10T06:13:41.562Z,16.35
2023-05-10T06:17:16.815Z,14.63
2023-05-10T06:20:47.874Z,7.90
2023-05-10T06:23:50.616Z,23.52
2023-05-10T06:26:53.795Z,12.07
2023-05-10T06:30:09.185Z,14.55
2023-05-10T06:33:17.606Z,12.50
2023-05-10T06:36:32.796Z,17.40
2023-05-10T06:39:45.348Z,12.02
2023-05-10T06:42:49.256Z,9.93
2023-05-10T06:45:54.933Z,37.92
2023-05-10T06:48:57.323Z,20.03
2023-05-10T06:51:59.926Z,25.20
2023-05-10T06:55:03.613Z,20.75
2023-05-10T06:58:06.236Z,19.40
2023-05-10T07:01:08.766Z,23.70
2023-05-10T07:04:11.317Z,20.47
2023-05-10T07:07:14.699Z,18.47
2023-05-10T07:10:17.664Z,19.75
2023-05-10T07:13:20.298Z,18.75
2023-05-10T07:16:23.027Z,17.55
2023-05-10T07:19:26.211Z,19.63
2023-05-10T07:22:28.606Z,20.17
2023-05-10T07:25:31.013Z,18.90
2023-05-10T07:28:34.189Z,25.02
2023-05-10T07:31:36.855Z,15.52
2023-05-10T07:34:39.363Z,23.67
2023-05-10T07:37:45.136Z,12.23
2023-05-10T07:40:47.609Z,14.73
2023-05-10T07:43:50.085Z,15.65
2023-05-10T07:46:53.293Z,16.10
2023-05-10T07:49:55.736Z,12.83
2023-05-10T07:53:07.729Z,13.93
2023-05-10T07:56:26.327Z,15.00
2023-05-10T07:59:28.812Z,14.52
2023-05-10T08:02:31.704Z,17.42
2023-05-10T08:05:35.794Z,12.63
2023-05-10T08:08:38.287Z,17.40
2023-05-10T08:11:40.800Z,13.98
2023-05-10T08:14:43.559Z,14.00
2023-05-10T08:17:46.180Z,15.43
2023-05-10T08:20:48.752Z,14.40
2023-05-10T08:23:51.151Z,11.23
2023-05-10T08:26:53.767Z,17.90
2023-05-10T08:29:56.200Z,11.70
2023-05-10T08:32:58.657Z,16.42
2023-05-10T08:36:01.162Z,14.93
2023-05-10T08:39:04.120Z,14.77
2023-05-10T08:42:07.951Z,16.77
2023-05-10T08:45:11.789Z,12.88
2023-05-10T08:48:15.712Z,11.18
2023-05-10T08:51:26.464Z,16.70
2023-05-10T08:54:29.033Z,9.67
2023-05-10T08:57:31.591Z,16.73
2023-05-10T09:00:34.396Z,11.75
2023-05-10T09:03:39.695Z,10.95
2023-05-10T09:06:42.414Z,9.90
2023-05-10T09:09:45.197Z,7.80
2023-05-10T09:12:47.830Z,8.13
2023-05-10T09:15:50.968Z,12.40
2023-05-10T09:18:53.381Z,11.55
2023-05-10T09:21:56.981Z,19.07
2023-05-10T09:25:10.268Z,9.60
2023-05-10T09:28:12.890Z,9.50
2023-05-10T09:31:15.340Z,13.27
2023-05-10T09:34:20.461Z,9.93
2023-05-10T09:37:30.799Z,7.43
2023-05-10T09:40:34.613Z,12.80
2023-05-10T09:43:39.417Z,13.93
2023-05-10T09:46:42.637Z,6.95
2023-05-10T09:49:51.058Z,7.07
2023-05-10T09:53:15.308Z,9.40
2023-05-10T09:56:37.162Z,11.63
2023-05-10T09:59:43.899Z,9.07
2023-05-10T10:02:55.065Z,8.23
2023-05-10T10:05:57.923Z,7.80
2023-05-10T10:09:06.155Z,10.93
2023-05-10T10:12:11.783Z,13.33
2023-05-10T10:15:16.598Z,5.53
2023-05-10T10:18:20.732Z,9.70
2023-05-10T10:21:24.062Z,9.52
2023-05-10T10:24:26.458Z,10.77
2023-05-10T10:27:53.110Z,10.37
2023-05-10T10:30:56.441Z,11.15
2023-05-10T10:34:06.584Z,11.35
2023-05-10T10:37:09.157Z,8.68
2023-05-10T10:40:26.520Z,9.93
2023-05-10T10:43:30.130Z,11.83
2023-05-10T10:46:35.496Z,13.10
2023-05-10T10:49:41.805Z,8.90
2023-05-10T10:52:45.325Z,11.35
2023-05-10T10:55:49.123Z,15.83
2023-05-10T10:58:54.821Z,10.27
2023-05-10T11:01:57.553Z,9.90
2023-05-10T11:05:02.336Z,11.82
2023-05-10T11:08:17.287Z,11.85
2023-05-10T11:11:19.763Z,9.23
2023-05-10T11:14:23.564Z,9.40
2023-05-10T11:17:30.339Z,10.77
2023-05-10T11:20:40.314Z,8.95
2023-05-10T11:23:51.367Z,9.45
2023-05-10T11:26:54.539Z,11.37
2023-05-10T11:29:56.944Z,9.87
2023-05-10T11:32:59.402Z,9.10
2023-05-10T11:36:01.822Z,8.63
2023-05-10T11:39:05.203Z,7.80
2023-05-10T11:42:10.533Z,8.07
2023-05-10T11:45:12.946Z,11.53
2023-05-10T11:48:15.376Z,7.30
2023-05-10T11:51:21.986Z,9.98
2023-05-10T11:54:24.328Z,11.43
2023-05-10T11:57:29.122Z,6.00
2023-05-10T12:00:32.270Z,9.47
2023-05-10T12:03:35.298Z,13.05
2023-05-10T12:06:41.950Z,8.68
2023-05-10T12:09:45.881Z,10.15
2023-05-10T12:12:49.272Z,6.93
2023-05-10T12:15:51.659Z,7.13
2023-05-10T12:18:58.246Z,6.25
2023-05-10T12:22:01.139Z,10.35
2023-05-10T12:25:03.931Z,7.63
2023-05-10T12:28:10.698Z,7.37
2023-05-10T12:31:13.140Z,8.07
2023-05-10T12:34:37.275Z,7.05
2023-05-10T12:37:39.998Z,5.05
2023-05-10T12:40:42.426Z,8.73
2023-05-10T12:43:46.390Z,5.30
2023-05-10T12:46:48.811Z,5.47
2023-05-10T12:49:52.252Z,5.90
2023-05-10T12:52:54.608Z,4.60
2023-05-10T12:55:57.175Z,6.65
2023-05-10T12:58:59.556Z,9.03
2023-05-10T13:02:01.922Z,6.20
2023-05-10T13:05:04.697Z,8.63
2023-05-10T13:08:07.084Z,7.45
2023-05-10T13:11:09.441Z,6.18
2023-05-10T13:14:12.030Z,6.70
2023-05-10T13:17:14.570Z,5.93
2023-05-10T13:20:17.522Z,9.20
2023-05-10T13:23:20.082Z,8.38
2023-05-10T13:26:22.525Z,12.07
2023-05-10T13:29:24.916Z,8.10
2023-05-10T13:32:27.492Z,6.93
2023-05-10T13:35:29.926Z,5.82
2023-05-10T13:38:32.293Z,10.07
2023-05-10T13:41:35.053Z,5.60
2023-05-10T13:44:37.507Z,12.60
2023-05-10T13:47:40.264Z,7.50
2023-05-10T13:50:42.658Z,14.02
2023-05-10T13:53:45.085Z,10.68
2023-05-10T13:56:48.547Z,10.50
2023-05-10T13:59:51.415Z,8.33
2023-05-10T14:02:54.074Z,8.13
2023-05-10T14:05:56.710Z,13.25
2023-05-10T14:08:59.091Z,11.82
2023-05-10T14:12:01.578Z,14.88
2023-05-10T14:15:06.884Z,8.90
2023-05-10T14:18:09.447Z,14.90
2023-05-10T14:21:11.841Z,13.15
2023-05-10T14:24:14.204Z,16.35
2023-05-10T14:27:17.027Z,14.07
2023-05-10T14:30:19.580Z,10.00
2023-05-10T14:33:22.035Z,5.87
2023-05-10T14:36:24.542Z,8.50
2023-05-10T14:39:30.586Z,12.63
2023-05-10T14:42:33.214Z,6.20
2023-05-10T14:45:36.047Z,7.17
2023-05-10T14:48:38.527Z,8.07
2023-05-10T14:51:40.932Z,7.68
2023-05-10T14:54:43.431Z,8.27
2023-05-10T14:57:47.603Z,7.72
2023-05-10T15:00:50.265Z,9.60
2023-05-10T15:03:53.165Z,9.50
2023-05-10T15:07:00.191Z,7.32
2023-05-10T15:10:03.359Z,9.82
2023-05-10T15:13:06.011Z,10.15
2023-05-10T15:16:08.470Z,12.13
2023-05-10T15:19:10.932Z,10.57
2023-05-10T15:22:13.339Z,8.82
2023-05-10T15:25:16.974Z,6.88
2023-05-10T15:28:19.625Z,6.90
2023-05-10T15:31:22.077Z,7.67
2023-05-10T15:34:24.683Z,9.37
2023-05-10T15:37:27.354Z,7.05
2023-05-10T15:40:29.744Z,7.95
2023-05-10T15:43:32.401Z,7.38
2023-05-10T15:46:34.999Z,12.77
2023-05-10T15:49:37.575Z,9.37
2023-05-10T15:52:40.093Z,6.90
2023-05-10T15:55:42.490Z,6.35
2023-05-10T15:58:44.835Z,4.40
2023-05-10T16:01:47.452Z,5.50
2023-05-10T16:04:49.866Z,5.13
2023-05-10T16:07:52.449Z,5.88
2023-05-10T16:10:54.805Z,8.15
2023-05-10T16:13:57.310Z,7.63
2023-05-10T16:16:59.771Z,8.33
2023-05-10T16:20:02.324Z,6.03
2023-05-10T16:23:06.523Z,4.28
2023-05-10T16:26:08.952Z,6.72
2023-05-10T16:29:11.368Z,6.50
2023-05-10T16:32:13.753Z,4.47
2023-05-10T16:35:16.803Z,5.97
2023-05-10T16:38:21.715Z,5.60
2023-05-10T16:41:24.142Z,6.28
2023-05-10T16:44:26.581Z,6.93
2023-05-10T16:47:28.952Z,8.27
2023-05-10T16:50:31.471Z,7.17
2023-05-10T16:53:34.375Z,6.55
2023-05-10T16:56:36.950Z,5.50
2023-05-10T16:59:39.352Z,10.32
2023-05-10T17:02:42.206Z,5.87
2023-05-10T17:05:44.639Z,5.90
2023-05-10T17:08:47.078Z,7.03
2023-05-10T17:11:49.566Z,5.47
2023-05-10T17:14:52.008Z,6.03
2023-05-10T17:17:54.497Z,5.97
2023-05-10T17:20:57.061Z,5.30
2023-05-10T17:23:59.438Z,8.05
2023-05-10T17:27:03.730Z,7.15
2023-05-10T17:30:06.782Z,5.63
2023-05-10T17:33:09.235Z,4.60
2023-05-10T17:36:11.799Z,6.30
2023-05-10T17:39:14.292Z,4.82
2023-05-10T17:42:19.140Z,5.35
2023-05-10T17:45:21.595Z,6.05
2023-05-10T17:48:24.035Z,5.50
2023-05-10T17:51:26.465Z,4.03
2023-05-10T17:54:28.911Z,5.60
2023-05-10T17:57:31.423Z,5.53
2023-05-10T18:00:33.947Z,7.28
2023-05-10T18:03:36.428Z,4.83
2023-05-10T18:06:39.271Z,4.57
2023-05-10T18:09:41.643Z,3.42
2023-05-10T18:12:44.454Z,4.28
2023-05-10T18:15:47.110Z,4.47
2023-05-10T18:18:49.499Z,5.97
2023-05-10T18:21:52.560Z,6.57
2023-05-10T18:24:55.011Z,3.78
2023-05-10T18:27:57.472Z,6.60
2023-05-10T18:31:00.027Z,5.13
2023-05-10T18:34:02.438Z,4.47
2023-05-10T18:37:07.943Z,6.37
2023-05-10T18:40:12.659Z,5.93
2023-05-10T18:43:15.307Z,4.40
2023-05-10T18:46:17.752Z,3.03
2023-05-10T18:49:20.614Z,5.43
2023-05-10T18:52:23.107Z,3.90
2023-05-10T18:55:28.637Z,4.97
2023-05-10T18:58:31.430Z,3.53
2023-05-10T19:01:33.943Z,6.75
2023-05-10T19:04:36.474Z,3.80
2023-05-10T19:07:40.673Z,6.20
2023-05-10T19:10:43.507Z,4.68
2023-05-10T19:13:46.364Z,5.90
2023-05-10T19:16:53.666Z,6.03
2023-05-10T19:19:57.404Z,4.23
2023-05-10T19:23:09.914Z,4.27
2023-05-10T19:26:12.928Z,4.15
2023-05-10T19:29:15.579Z,4.15
2023-05-10T19:32:18.204Z,5.78
2023-05-10T19:35:20.666Z,4.83
2023-05-10T19:38:24.272Z,3.67
2023-05-10T19:41:26.880Z,4.82
2023-05-10T19:44:29.703Z,3.40
2023-05-10T19:47:32.129Z,3.30
2023-05-10T19:50:34.590Z,2.47
2023-05-10T19:53:37.155Z,4.57
2023-05-10T19:56:39.708Z,3.90
2023-05-10T19:59:42.734Z,3.55
2023-05-10T20:02:45.300Z,3.13
2023-05-10T20:05:47.980Z,3.37
2023-05-10T20:08:51.189Z,4.90
2023-05-10T20:11:53.708Z,2.75
2023-05-10T20:14:56.262Z,2.58
2023-05-10T20:17:58.766Z,5.00
2023-05-10T20:21:01.245Z,5.97
2023-05-10T20:24:03.978Z,4.27
2023-05-10T20:27:06.604Z,3.83
2023-05-10T20:30:10.528Z,4.13
2023-05-10T20:33:15.813Z,4.45
2023-05-10T20:36:18.176Z,5.47
2023-05-10T20:39:20.688Z,2.80
2023-05-10T20:42:23.387Z,4.75
2023-05-10T20:45:25.901Z,3.72
2023-05-10T20:48:28.408Z,3.03
2023-05-10T20:51:33.375Z,2.93
2023-05-10T20:54:35.883Z,3.27
2023-05-10T20:57:38.392Z,3.53
2023-05-10T21:00:40.766Z,3.72
2023-05-10T21:03:43.276Z,2.90
2023-05-10T21:06:45.754Z,2.60
2023-05-10T21:09:48.235Z,4.53
2023-05-10T21:12:50.633Z,2.92
2023-05-10T21:15:53.316Z,4.88
2023-05-10T21:18:55.808Z,2.70
2023-05-10T21:22:00.047Z,3.17
2023-05-10T21:25:02.578Z,3.27
2023-05-10T21:28:05.410Z,3.53
2023-05-10T21:31:07.926Z,2.92
2023-05-10T21:34:10.520Z,2.50
2023-05-10T21:37:12.993Z,2.50
2023-05-10T21:40:15.763Z,3.00
2023-05-10T21:43:18.275Z,3.95
2023-05-10T21:46:20.610Z,3.22
2023-05-10T21:49:23.205Z,3.17
2023-05-10T21:52:25.636Z,2.50
2023-05-10T21:55:28.062Z,3.30
2023-05-10T21:58:30.480Z,3.45
2023-05-10T22:01:33.017Z,3.40
2023-05-10T22:04:35.551Z,2.45
2023-05-10T22:07:38.101Z,3.73
2023-05-10T22:10:40.549Z,2.63
2023-05-10T22:13:42.908Z,3.03
2023-05-10T22:16:45.302Z,3.90
2023-05-10T22:19:47.759Z,3.92
2023-05-10T22:22:50.371Z,4.70
2023-05-10T22:25:52.766Z,2.90
2023-05-10T22:28:55.227Z,3.72
2023-05-10T22:31:58.179Z,2.55
2023-05-10T22:35:00.592Z,2.97
2023-05-10T22:38:03.273Z,2.70
2023-05-10T22:41:05.780Z,3.13
2023-05-10T22:44:08.352Z,3.35
2023-05-10T22:47:10.794Z,2.45
2023-05-10T22:50:14.238Z,3.17
2023-05-10T22:53:16.598Z,2.80
2023-05-10T22:56:19.109Z,2.17
2023-05-10T22:59:21.772Z,2.75
2023-05-10T23:02:24.175Z,2.15
2023-05-10T23:05:26.962Z,2.50
2023-05-10T23:08:29.340Z,3.10
2023-05-10T23:11:31.712Z,2.37
2023-05-10T23:14:34.156Z,2.55
2023-05-10T23:17:36.661Z,3.08
2023-05-10T23:20:41.660Z,3.17
2023-05-10T23:23:44.193Z,3.20
2023-05-10T23:26:47.356Z,2.60
2023-05-10T23:29:55.699Z,2.65
2023-05-10T23:32:58.306Z,2.60
2023-05-10T23:36:01.059Z,3.72
2023-05-10T23:39:03.798Z,3.70
2023-05-10T23:42:07.171Z,2.47
2023-05-10T23:45:09.818Z,2.10
2023-05-10T23:48:13.151Z,2.72
2023-05-10T23:51:15.527Z,2.00
2023-05-10T23:54:18.177Z,2.73
2023-05-10T23:57:20.987Z,2.30
